METAR UND TAF INFORMATION
EDDE 252020Z 28008KT 9999 BKN023 01/00 Q1023 NOSIG

 FLUGHAFENKARTE

 RUNWAY INFORMATION
Runway 10 Runway length 8530 ft Runway width 164 ft
Runway elevation 1025 ft Runway displaced threshold 0 ft Runway heading 98
Runway 28 Runway length 8530 ft Runway width 164 ft
Runway elevation 1016 ft Runway displaced threshold 689 ft Runway heading 278

 AIRPORT FREQUENCIES
Type APP Name MUNCHEN RA Frequency 132.3 MHZ
Type ATIS Name ATIS Frequency 133.45 MHZ
Type GND Name GND Frequency 121.75 MHZ
Type INFO Name MUNCHEN IN Frequency 120.65 MHZ
Type RMP Name APRON Frequency 121.9 MHZ
Type TWR Name TWR Frequency 121.15 MHZ

 AIRPORT NEAR NAVIGATION AIDS
Type DME Name Erfurt Frequency 112050 KHZ
Type VOR-DME Name Erfurt Frequency 113850 KHZ
Type NDB Name Erfurt Frequency 425 KHZ